Time;durP1;ratioP1;P1;durP2;ratioP2;P2;SDS_P1;SDS_P2;PMS_P1;PMS_P2;Temp;Humidity;BMP_temperature;BMP_pressure;BME280_temperature;BME280_humidity;BME280_pressure;Samples;Min_cycle;Max_cycle;Signal;HPM_P1;HPM_P2
2022/07/08 00:01:50;;;;;;;6.63;1.35;;;;;;;15.82;67.93;100828.84;5126330;28;20026;-69
2022/07/08 00:04:16;;;;;;;0.20;0.20;;;;;;;15.79;68.12;100819.31;5126216;28;20019;-69
2022/07/08 00:06:41;;;;;;;0.20;0.20;;;;;;;15.75;68.57;100822.88;5126101;28;20045;-69
2022/07/08 00:09:10;;;;;;;0.20;0.20;;;;;;;15.81;68.32;100822.75;5126138;28;20395;-69
2022/07/08 00:11:35;;;;;;;0.20;0.20;;;;;;;15.81;68.60;100828.00;5126145;28;20023;-69
2022/07/08 00:14:00;;;;;;;0.20;0.20;;;;;;;15.83;68.38;100820.09;5126068;28;20148;-71
2022/07/08 00:16:26;;;;;;;0.30;0.30;;;;;;;15.82;69.07;100821.84;5126167;28;20031;-70
2022/07/08 00:18:51;;;;;;;0.30;0.30;;;;;;;15.84;69.28;100827.91;5126101;28;20031;-70
2022/07/08 00:21:16;;;;;;;0.20;0.20;;;;;;;15.83;69.38;100820.94;5125772;28;20043;-70
2022/07/08 00:23:42;;;;;;;0.20;0.20;;;;;;;15.81;69.67;100816.66;5125940;28;20482;-70
2022/07/08 00:26:07;;;;;;;0.30;0.30;;;;;;;15.78;70.24;100812.38;5125663;28;20051;-70
2022/07/08 00:28:33;;;;;;;0.25;0.25;;;;;;;15.76;70.31;100813.28;5125775;28;20060;-71
2022/07/08 00:30:58;;;;;;;0.30;0.30;;;;;;;15.79;70.25;100811.44;5125774;28;20111;-70
2022/07/08 00:33:23;;;;;;;0.30;0.30;;;;;;;15.76;70.69;100808.91;5125889;28;20042;-71
2022/07/08 00:35:49;;;;;;;0.30;0.30;;;;;;;15.70;71.00;100799.44;5125642;28;20031;-70
2022/07/08 00:38:14;;;;;;;0.40;0.40;;;;;;;15.70;71.32;100795.97;5125629;28;20157;-70
2022/07/08 00:40:39;;;;;;;0.30;0.30;;;;;;;15.71;71.40;100797.69;5125707;28;20446;-70
2022/07/08 00:43:05;;;;;;;0.30;0.30;;;;;;;15.69;71.53;100791.63;5125490;28;20020;-70
2022/07/08 00:45:31;;;;;;;0.30;0.30;;;;;;;15.73;72.08;100798.50;5125668;28;20028;-69
2022/07/08 00:47:56;;;;;;;0.20;0.20;;;;;;;15.74;72.22;100789.75;5125523;28;20024;-69
2022/07/08 00:50:22;;;;;;;0.22;0.22;;;;;;;15.80;72.45;100791.38;5125276;28;20035;-70
2022/07/08 00:52:48;;;;;;;0.30;0.30;;;;;;;15.82;72.10;100793.06;5125374;28;20023;-70
2022/07/08 00:55:15;;;;;;;0.43;0.43;;;;;;;15.85;72.12;100782.50;5125328;28;20049;-70
2022/07/08 00:57:40;;;;;;;0.20;0.20;;;;;;;15.91;71.82;100775.41;5124499;28;20076;-70
2022/07/08 01:00:07;;;;;;;0.20;0.20;;;;;;;15.92;72.13;100785.84;5105657;28;20024;-71
2022/07/08 01:02:32;;;;;;;0.30;0.30;;;;;;;15.93;71.88;100777.06;5105744;28;20024;-69
2022/07/08 01:04:58;;;;;;;0.20;0.20;;;;;;;16.00;71.87;100784.81;5124421;28;20051;-69
2022/07/08 01:07:24;;;;;;;0.20;0.20;;;;;;;16.03;71.56;100779.50;5125085;28;20065;-69
2022/07/08 01:09:50;;;;;;;0.20;0.20;;;;;;;15.99;71.90;100778.69;5124952;28;20023;-69
2022/07/08 01:12:17;;;;;;;0.20;0.20;;;;;;;15.96;72.57;100776.13;5125021;28;20225;-69
2022/07/08 01:14:43;;;;;;;0.20;0.20;;;;;;;15.98;72.35;100785.72;5124859;28;20027;-70
2022/07/08 01:17:09;;;;;;;0.30;0.30;;;;;;;15.96;72.74;100778.75;5125127;28;20084;-69
2022/07/08 01:19:34;;;;;;;0.30;0.30;;;;;;;15.94;72.59;100781.41;5124649;28;20152;-69
2022/07/08 01:21:59;;;;;;;0.30;0.30;;;;;;;15.96;72.37;100776.13;5124850;28;20360;-70
2022/07/08 01:24:25;;;;;;;0.32;0.32;;;;;;;15.95;72.87;100779.66;5124826;28;20426;-70
2022/07/08 01:26:51;;;;;;;0.20;0.20;;;;;;;16.00;72.50;100782.19;5124675;28;20138;-69
2022/07/08 01:29:16;;;;;;;0.20;0.20;;;;;;;15.99;72.44;100786.56;5124537;28;20027;-70
2022/07/08 01:31:41;;;;;;;0.20;0.20;;;;;;;15.97;72.78;100785.72;5124821;28;20023;-70
2022/07/08 01:34:07;;;;;;;0.20;0.20;;;;;;;15.98;72.19;100796.19;5124620;28;20037;-70
2022/07/08 01:36:33;;;;;;;0.30;0.30;;;;;;;15.93;72.62;100790.16;5124458;28;20027;-69
2022/07/08 01:38:58;;;;;;;0.20;0.20;;;;;;;15.90;73.40;100799.84;5124495;28;20460;-69
2022/07/08 01:41:23;;;;;;;0.20;0.20;;;;;;;15.84;74.26;100793.88;5124489;28;20019;-69
2022/07/08 01:43:50;;;;;;;0.30;0.30;;;;;;;15.84;74.26;100800.88;5105930;28;20028;-69
2022/07/08 01:46:15;;;;;;;0.20;0.20;;;;;;;15.82;74.92;100786.94;5124342;28;20019;-70
2022/07/08 01:48:41;;;;;;;0.20;0.20;;;;;;;15.82;75.20;100784.31;5124294;28;20075;-69
2022/07/08 01:51:06;;;;;;;0.20;0.20;;;;;;;15.80;75.69;100776.50;5105656;28;20031;-69
2022/07/08 01:53:32;;;;;;;0.20;0.20;;;;;;;15.79;76.25;100776.56;5124216;28;20019;-69
2022/07/08 01:55:57;;;;;;;0.60;0.60;;;;;;;15.79;76.76;100769.56;5124004;28;20026;-69
2022/07/08 01:58:22;;;;;;;0.20;0.20;;;;;;;15.79;77.24;100772.19;5123947;28;20051;-68
2022/07/08 02:00:48;;;;;;;0.32;0.32;;;;;;;15.79;77.43;100769.56;5124198;28;20031;-68
2022/07/08 02:03:13;;;;;;;2.67;2.55;;;;;;;15.82;77.29;100776.47;5105741;28;20063;-68
2022/07/08 02:05:39;;;;;;;1.10;1.10;;;;;;;15.79;77.68;100776.56;5124006;28;20052;-69
2022/07/08 02:08:04;;;;;;;0.40;0.40;;;;;;;15.74;77.64;100761.84;5124168;28;20026;-69
2022/07/08 02:12:18;;;;;;;0.20;0.20;;;;;;;15.78;77.62;100765.25;5123906;28;20080;-69
2022/07/08 02:13:17;;;;;;;0.20;0.20;;;;;;;15.73;77.99;100754.84;5123816;28;20031;-69
2022/07/08 02:15:43;;;;;;;0.25;0.25;;;;;;;15.70;78.68;100761.94;5104922;28;20027;-69
2022/07/08 02:18:09;;;;;;;0.20;0.20;;;;;;;15.70;79.18;100756.72;5123891;28;20053;-69
2022/07/08 02:20:34;;;;;;;0.28;0.28;;;;;;;15.66;79.54;100760.28;5123803;28;20044;-68
2022/07/08 02:22:59;;;;;;;0.20;0.20;;;;;;;15.66;79.55;100755.03;5123991;28;20062;-69
2022/07/08 02:25:25;;;;;;;0.20;0.20;;;;;;;15.65;79.81;100758.56;5123660;28;20155;-68
2022/07/08 02:27:50;;;;;;;0.22;0.22;;;;;;;15.66;79.62;100755.03;5123922;28;20032;-69
2022/07/08 02:30:16;;;;;;;0.20;0.20;;;;;;;15.69;79.88;100763.69;5123522;28;20026;-69
2022/07/08 02:32:41;;;;;;;0.40;0.40;;;;;;;15.70;80.13;100760.16;5123649;28;20020;-69
2022/07/08 02:35:07;;;;;;;0.20;0.20;;;;;;;15.73;79.98;100761.88;5123868;28;20039;-69
2022/07/08 02:37:32;;;;;;;0.30;0.30;;;;;;;15.72;80.09;100766.22;5123710;28;20081;-69
2022/07/08 02:39:57;;;;;;;0.30;0.30;;;;;;;15.70;79.81;100754.09;5123658;28;20666;-69
2022/07/08 02:42:24;;;;;;;0.20;0.20;;;;;;;15.71;80.08;100755.81;5123438;28;20051;-68
2022/07/08 02:44:49;;;;;;;0.30;0.30;;;;;;;15.82;80.05;100769.50;5105640;28;20172;-68
2022/07/08 02:47:15;;;;;;;0.20;0.20;;;;;;;15.84;79.92;100775.56;5123503;28;20024;-68
2022/07/08 02:49:40;;;;;;;0.30;0.30;;;;;;;15.86;80.29;100772.91;5123496;28;20034;-68
2022/07/08 02:52:06;;;;;;;0.20;0.20;;;;;;;15.90;80.56;100776.28;5123363;28;20027;-70
2022/07/08 02:54:31;;;;;;;3.75;2.55;;;;;;;15.92;80.37;100766.63;5123481;28;20022;-68
2022/07/08 02:56:56;;;;;;;0.20;0.20;;;;;;;15.92;80.55;100767.50;5123637;28;20047;-68
2022/07/08 02:59:22;;;;;;;0.30;0.30;;;;;;;15.97;79.91;100768.25;5123342;28;20031;-69
2022/07/08 03:01:47;;;;;;;0.20;0.20;;;;;;;15.98;80.14;100770.00;5123505;28;20087;-69
2022/07/08 03:04:12;;;;;;;0.30;0.30;;;;;;;16.02;80.15;100769.94;5123472;28;20028;-69
2022/07/08 03:06:38;;;;;;;0.20;0.20;;;;;;;16.00;80.61;100774.34;5123259;28;20440;-69
2022/07/08 03:09:03;;;;;;;0.30;0.30;;;;;;;16.03;80.45;100769.88;5123350;28;20031;-68
2022/07/08 03:11:29;;;;;;;0.40;0.40;;;;;;;16.04;80.26;100771.59;5105166;28;20036;-68
2022/07/08 03:13:54;;;;;;;0.28;0.28;;;;;;;16.04;80.12;100776.84;5123457;28;20058;-68
2022/07/08 03:16:19;;;;;;;0.47;0.47;;;;;;;16.06;80.62;100766.31;5123434;28;20027;-68
2022/07/08 03:18:45;;;;;;;0.32;0.32;;;;;;;16.06;80.70;100766.31;5123244;28;20384;-68
2022/07/08 03:21:11;;;;;;;0.20;0.20;;;;;;;16.09;80.79;100759.25;5123129;28;20043;-68
2022/07/08 03:23:36;;;;;;;0.20;0.20;;;;;;;16.13;80.61;100762.66;5123484;28;20024;-69
2022/07/08 03:26:02;;;;;;;0.32;0.32;;;;;;;16.17;80.20;100756.44;5122811;28;20082;-69
2022/07/08 03:28:28;;;;;;;0.25;0.25;;;;;;;16.19;79.98;100738.06;5126193;28;20030;-68
2022/07/08 03:30:53;;;;;;;0.40;0.40;;;;;;;16.20;80.11;100751.09;5107870;28;20557;-68
2022/07/08 03:33:19;;;;;;;0.20;0.20;;;;;;;16.19;80.53;100753.78;5126756;28;20019;-68
2022/07/08 03:35:44;;;;;;;0.20;0.20;;;;;;;16.20;80.50;100753.72;5126646;28;20016;-68
2022/07/08 03:38:09;;;;;;;0.30;0.30;;;;;;;16.20;80.53;100751.09;5126921;28;20069;-68
2022/07/08 03:43:19;;;;;;;0.20;0.20;;;;;;;16.22;80.62;100753.69;5126929;28;20034;-70
2022/07/08 03:45:44;;;;;;;0.20;0.20;;;;;;;16.22;80.32;100751.94;5126408;28;20083;-69
2022/07/08 03:48:10;;;;;;;0.20;0.20;;;;;;;16.26;80.39;100750.09;5126687;28;20049;-69
2022/07/08 03:50:35;;;;;;;0.20;0.20;;;;;;;16.33;80.08;100754.25;5126131;28;20027;-70
2022/07/08 03:53:00;;;;;;;0.20;0.20;;;;;;;16.35;80.17;100747.22;5126549;28;20026;-68
2022/07/08 03:55:26;;;;;;;0.50;0.50;;;;;;;16.35;80.38;100755.09;5126422;28;20097;-68
2022/07/08 03:57:52;;;;;;;0.20;0.20;;;;;;;16.42;80.25;100754.91;5126512;28;20042;-69
2022/07/08 04:00:19;;;;;;;0.20;0.20;;;;;;;16.42;80.22;100757.53;5126305;28;20045;-69
2022/07/08 04:02:45;;;;;;;0.20;0.20;;;;;;;16.50;80.05;100758.19;5126373;28;20027;-67
2022/07/08 04:05:12;;;;;;;8.57;2.28;;;;;;;16.52;80.09;100764.22;5126198;28;20049;-67
2022/07/08 04:07:38;;;;;;;0.20;0.20;;;;;;;16.55;79.96;100766.75;5126220;28;20111;-67
2022/07/08 04:10:04;;;;;;;0.73;0.73;;;;;;;16.60;79.85;100766.63;5126084;28;20030;-67
2022/07/08 04:12:29;;;;;;;0.20;0.20;;;;;;;16.68;79.93;100772.53;5107804;28;20091;-67
2022/07/08 04:14:55;;;;;;;0.20;0.20;;;;;;;16.79;79.48;100777.47;5126068;28;20019;-68
2022/07/08 04:17:20;;;;;;;0.20;0.20;;;;;;;16.82;79.26;100764.25;5125917;28;20024;-67
2022/07/08 04:19:45;;;;;;;0.20;0.20;;;;;;;16.91;78.95;100764.91;5125911;28;20046;-67
2022/07/08 04:22:11;;;;;;;0.20;0.20;;;;;;;16.99;78.91;100778.66;5125728;28;20027;-67
2022/07/08 04:24:36;;;;;;;0.30;0.30;;;;;;;17.03;78.55;100780.28;5125968;28;20034;-67
2022/07/08 04:27:02;;;;;;;0.40;0.40;;;;;;;17.07;78.45;100773.19;5125755;28;20047;-67
2022/07/08 04:29:27;;;;;;;0.22;0.22;;;;;;;17.13;78.19;100783.53;5125740;28;20024;-67
2022/07/08 04:31:52;;;;;;;0.20;0.20;;;;;;;17.13;78.16;100777.41;5125804;28;20039;-67
2022/07/08 04:34:18;;;;;;;0.20;0.20;;;;;;;17.06;77.86;100785.44;5107482;28;20008;-67
2022/07/08 04:36:43;;;;;;;0.20;0.20;;;;;;;17.07;77.73;100788.91;5125567;28;20027;-67
2022/07/08 04:39:08;;;;;;;0.20;0.20;;;;;;;16.96;77.80;100797.09;5124898;28;20503;-67
2022/07/08 04:41:34;;;;;;;0.30;0.30;;;;;;;16.97;77.61;100798.81;5125118;28;20027;-67
2022/07/08 04:43:59;;;;;;;0.20;0.20;;;;;;;16.85;77.89;100811.38;5125384;28;20015;-67
2022/07/08 04:46:24;;;;;;;0.20;0.20;;;;;;;16.82;77.87;100814.09;5125123;28;20027;-67
2022/07/08 04:48:50;;;;;;;1.00;1.00;;;;;;;16.86;77.29;100814.88;5124999;28;20028;-67
2022/07/08 04:51:15;;;;;;;0.20;0.20;;;;;;;16.85;77.77;100823.66;5124887;28;20027;-68
2022/07/08 04:53:40;;;;;;;0.20;0.20;;;;;;;17.24;79.03;100837.44;5125172;28;20079;-68
2022/07/08 04:56:06;;;;;;;0.20;0.20;;;;;;;18.06;81.02;100837.53;5124914;28;20039;-68
2022/07/08 04:58:32;;;;;;;0.20;0.20;;;;;;;19.19;81.75;100833.66;5125148;28;20043;-67
2022/07/08 05:00:57;;;;;;;0.20;0.20;;;;;;;20.17;80.09;100823.69;5125071;28;20037;-68
2022/07/08 05:03:22;;;;;;;0.20;0.20;;;;;;;21.04;79.55;100832.25;5124877;28;20052;-69
2022/07/08 05:05:48;;;;;;;0.20;0.20;;;;;;;21.52;76.62;100821.25;5124839;28;20020;-69
2022/07/08 05:08:13;;;;;;;0.10;0.10;;;;;;;22.07;74.52;100830.06;5125014;28;20054;-69
2022/07/08 05:10:39;;;;;;;0.17;0.17;;;;;;;22.10;72.32;100831.69;5124784;28;20072;-69
2022/07/08 05:13:05;;;;;;;4.18;2.25;;;;;;;21.97;71.63;100842.88;5124876;28;20015;-69
2022/07/08 05:15:31;;;;;;;0.10;0.10;;;;;;;21.82;71.13;100835.72;5124764;28;20023;-71
2022/07/08 05:17:56;;;;;;;0.10;0.10;;;;;;;21.79;70.71;100834.94;5124552;28;20015;-74
2022/07/08 05:20:22;;;;;;;0.50;0.50;;;;;;;22.04;71.52;100836.34;5124582;28;20061;-73
2022/07/08 05:22:47;;;;;;;0.10;0.10;;;;;;;22.80;72.90;100845.78;5124478;28;20019;-71
2022/07/08 05:25:13;;;;;;;0.10;0.10;;;;;;;23.45;69.93;100850.25;5124409;28;20094;-71
2022/07/08 05:27:39;;;;;;;0.20;0.20;;;;;;;23.85;69.15;100844.47;5124812;28;20424;-70
2022/07/08 05:30:06;;;;;;;0.10;0.10;;;;;;;24.62;69.02;100845.34;5124399;28;20082;-68
2022/07/08 05:32:32;;;;;;;1.75;1.65;;;;;;;25.46;66.20;100842.78;5124520;28;20420;-69
2022/07/08 05:34:57;;;;;;;0.10;0.10;;;;;;;26.30;64.28;100835.59;5124295;28;20104;-73
2022/07/08 05:37:23;;;;;;;0.10;0.10;;;;;;;27.07;61.38;100839.22;5124402;28;20075;-71
2022/07/08 05:39:49;;;;;;;0.10;0.10;;;;;;;28.05;60.09;100839.25;5124475;28;20494;-72
2022/07/08 05:42:14;;;;;;;0.10;0.10;;;;;;;29.00;60.18;100833.78;5124485;28;20432;-71
2022/07/08 05:44:40;;;;;;;0.10;0.10;;;;;;;29.76;59.66;100834.81;5124307;28;20027;-71
2022/07/08 05:47:07;;;;;;;1.65;0.85;;;;;;;30.21;56.39;100838.25;5124221;28;20088;-73
2022/07/08 05:49:34;;;;;;;0.10;0.10;;;;;;;30.76;54.64;100845.13;5105666;28;20020;-73
2022/07/08 05:52:00;;;;;;;0.10;0.10;;;;;;;31.33;54.84;100844.59;5123883;28;20019;-71
2022/07/08 05:54:25;;;;;;;0.10;0.10;;;;;;;31.83;54.02;100848.19;5124496;28;20068;-71
2022/07/08 05:56:50;;;;;;;0.20;0.20;;;;;;;32.23;51.96;100846.31;5124479;28;20039;-71
2022/07/08 05:59:16;;;;;;;0.10;0.10;;;;;;;32.09;49.19;100839.56;5124292;28;20019;-69
2022/07/08 06:01:41;;;;;;;0.10;0.10;;;;;;;32.26;48.89;100839.78;5124320;28;20026;-71
2022/07/08 06:04:07;;;;;;;0.10;0.10;;;;;;;32.03;46.03;100838.28;5124001;28;20502;-71
2022/07/08 06:06:32;;;;;;;1.35;1.25;;;;;;;31.68;44.56;100846.91;5122094;28;20015;-70
2022/07/08 06:08:58;;;;;;;0.17;0.17;;;;;;;31.51;43.01;100854.66;5123488;28;20031;-70
2022/07/08 06:11:23;;;;;;;0.10;0.10;;;;;;;31.71;44.55;100846.63;5123682;28;20027;-72
2022/07/08 06:13:49;;;;;;;0.10;0.10;;;;;;;31.53;42.58;100850.00;5123531;28;20058;-71
2022/07/08 06:16:15;;;;;;;0.10;0.10;;;;;;;31.79;41.91;100847.59;5123799;28;20027;-72
2022/07/08 06:18:40;;;;;;;0.10;0.10;;;;;;;31.62;41.70;100848.31;5121032;28;20032;-72
2022/07/08 06:21:05;;;;;;;0.10;0.10;;;;;;;31.58;40.48;100849.59;5122061;28;20016;-73
2022/07/08 06:23:31;;;;;;;0.57;0.40;;;;;;;31.23;40.83;100852.63;5121897;28;20083;-72
2022/07/08 06:25:57;;;;;;;0.10;0.10;;;;;;;31.14;39.26;100850.75;5121833;28;20342;-72
2022/07/08 06:28:23;;;;;;;0.10;0.10;;;;;;;30.94;40.04;100852.56;5121585;28;20076;-72
2022/07/08 06:30:49;;;;;;;0.10;0.10;;;;;;;30.89;39.29;100869.03;5122184;28;20032;-72
2022/07/08 06:33:14;;;;;;;0.10;0.10;;;;;;;30.96;39.12;100864.81;5122666;28;20034;-72
2022/07/08 06:35:39;;;;;;;0.10;0.10;;;;;;;30.65;37.56;100867.50;5122767;28;20032;-72
2022/07/08 06:38:05;;;;;;;0.10;0.10;;;;;;;30.29;36.78;100868.72;5123281;28;20028;-73
2022/07/08 06:40:30;;;;;;;0.10;0.10;;;;;;;30.09;37.91;100873.09;5123625;28;20028;-72
2022/07/08 06:42:55;;;;;;;0.10;0.10;;;;;;;29.53;36.21;100872.31;5123788;28;20110;-73
2022/07/08 06:45:21;;;;;;;0.20;0.20;;;;;;;28.97;37.40;100880.31;5123530;28;20027;-72
2022/07/08 06:47:46;;;;;;;0.10;0.10;;;;;;;28.75;37.98;100876.63;5123569;28;20110;-71
2022/07/08 06:50:12;;;;;;;0.10;0.10;;;;;;;28.79;38.39;100885.25;5123611;28;20053;-71
2022/07/08 06:52:38;;;;;;;0.10;0.10;;;;;;;28.97;38.41;100882.13;5120983;28;20016;-71
2022/07/08 06:55:04;;;;;;;0.10;0.10;;;;;;;29.27;37.81;100896.66;5121347;28;20030;-72
2022/07/08 06:57:29;;;;;;;0.10;0.10;;;;;;;29.20;37.43;100889.16;5123432;28;20048;-72
2022/07/08 06:59:55;;;;;;;0.10;0.10;;;;;;;29.62;37.78;100882.28;5123269;28;20555;-72
2022/07/08 07:02:20;;;;;;;0.10;0.10;;;;;;;29.76;36.93;100888.31;5125486;28;20438;-71
2022/07/08 07:04:46;;;;;;;0.10;0.10;;;;;;;30.01;36.95;100880.91;5127423;28;20031;-71
2022/07/08 07:07:11;;;;;;;0.10;0.10;;;;;;;30.29;36.28;100881.25;5127162;28;20024;-72
2022/07/08 07:09:38;;;;;;;0.10;0.10;;;;;;;30.23;35.57;100881.78;5127304;28;20016;-70
2022/07/08 07:12:07;;;;;;;0.10;0.10;;;;;;;30.03;35.65;100881.63;5127427;28;20161;-71
2022/07/08 07:14:33;;;;;;;0.10;0.10;;;;;;;29.92;33.91;100885.22;5127561;28;20026;-71
2022/07/08 07:16:59;;;;;;;0.10;0.10;;;;;;;29.92;34.34;100887.91;5127150;28;20024;-71
2022/07/08 07:19:25;;;;;;;0.10;0.10;;;;;;;30.10;34.29;100882.78;5127134;28;20035;-71
2022/07/08 07:21:51;;;;;;;0.10;0.10;;;;;;;30.33;34.53;100882.72;5126856;28;20024;-70
2022/07/08 07:24:16;;;;;;;0.10;0.10;;;;;;;30.64;34.50;100890.75;5127068;28;20023;-70
2022/07/08 07:26:41;;;;;;;0.10;0.10;;;;;;;30.77;33.68;100890.53;5126413;28;20051;-70
2022/07/08 07:29:07;;;;;;;0.10;0.10;;;;;;;30.55;31.45;100888.88;5126253;28;20038;-70
2022/07/08 07:31:33;;;;;;;0.90;0.90;;;;;;;30.59;31.69;100894.84;5126223;28;20076;-70
2022/07/08 07:33:58;;;;;;;0.10;0.10;;;;;;;30.35;32.46;100895.97;5126751;28;20041;-70
2022/07/08 07:36:23;;;;;;;0.10;0.10;;;;;;;30.21;32.56;100897.97;5126978;28;20024;-71
2022/07/08 07:38:49;;;;;;;0.10;0.10;;;;;;;29.96;32.83;100907.19;5126730;28;20467;-71
2022/07/08 07:41:14;;;;;;;0.10;0.10;;;;;;;29.85;32.75;100903.59;5108277;28;20023;-70
2022/07/08 07:43:40;;;;;;;0.10;0.10;;;;;;;29.90;33.08;100912.09;5126584;28;20220;-70
2022/07/08 07:46:05;;;;;;;0.10;0.10;;;;;;;30.03;32.95;100906.56;5126730;28;20020;-70
2022/07/08 07:48:31;;;;;;;0.10;0.10;;;;;;;30.42;32.49;100908.69;5126632;28;20091;-70
2022/07/08 07:50:56;;;;;;;0.10;0.10;;;;;;;31.09;32.31;100912.84;5126398;28;20065;-71
2022/07/08 07:53:23;;;;;;;0.10;0.10;;;;;;;31.37;30.21;100904.19;5108092;28;20065;-71
2022/07/08 07:55:49;;;;;;;0.10;0.10;;;;;;;31.57;30.58;100910.44;5107983;28;20016;-71
2022/07/08 07:58:14;;;;;;;0.10;0.10;;;;;;;31.62;30.88;100907.34;5126468;28;20038;-71
2022/07/08 08:00:39;;;;;;;0.17;0.17;;;;;;;31.89;30.86;100914.72;5126373;28;20038;-71
2022/07/08 08:03:05;;;;;;;0.10;0.10;;;;;;;31.88;30.30;100917.53;5126272;28;20019;-71
2022/07/08 08:05:30;;;;;;;0.10;0.10;;;;;;;31.90;29.80;100921.75;5126204;28;20084;-71
2022/07/08 08:07:55;;;;;;;0.10;0.10;;;;;;;32.01;30.39;100922.66;5126128;28;20020;-71
2022/07/08 08:10:21;;;;;;;0.10;0.10;;;;;;;32.30;30.34;100932.53;5125916;28;20030;-70
2022/07/08 08:12:46;;;;;;;0.45;0.45;;;;;;;32.14;29.87;100925.06;5125431;28;20259;-71
2022/07/08 08:15:12;;;;;;;0.55;0.55;;;;;;;32.25;29.52;100929.41;5125462;28;20043;-71
2022/07/08 08:17:38;;;;;;;0.10;0.10;;;;;;;32.19;29.25;100930.00;5125803;28;20043;-70
2022/07/08 08:20:06;;;;;;;0.10;0.10;;;;;;;31.81;29.16;100927.16;5126046;28;20027;-73
2022/07/08 08:22:32;;;;;;;0.10;0.10;;;;;;;31.69;30.28;100924.59;5125790;28;20023;-71
2022/07/08 08:24:57;;;;;;;0.10;0.10;;;;;;;31.97;30.34;100932.81;5107320;28;20418;-71
2022/07/08 08:27:22;;;;;;;0.10;0.10;;;;;;;31.98;29.58;100939.06;5125374;28;20506;-69
2022/07/08 08:29:48;;;;;;;0.17;0.17;;;;;;;32.05;29.11;100923.22;5106987;28;20016;-70
2022/07/08 08:32:13;;;;;;;0.10;0.10;;;;;;;32.38;29.42;100926.44;5125641;28;20015;-70
2022/07/08 08:34:38;;;;;;;0.10;0.10;;;;;;;32.61;29.42;100918.03;5125086;28;20502;-70
2022/07/08 08:37:04;;;;;;;0.10;0.10;;;;;;;32.93;28.82;100911.41;5124567;28;20031;-70
2022/07/08 08:39:29;;;;;;;0.10;0.10;;;;;;;32.81;27.64;100918.00;5125219;28;20034;-72
2022/07/08 08:41:55;;;;;;;0.10;0.10;;;;;;;32.56;28.47;100918.47;5125947;28;20012;-71
2022/07/08 08:44:20;;;;;;;0.10;0.10;;;;;;;32.61;28.24;100921.59;5125432;28;20112;-74
2022/07/08 08:46:46;;;;;;;0.10;0.10;;;;;;;32.68;27.86;100912.94;5123618;28;20137;-73
2022/07/08 08:49:15;;;;;;;0.20;0.20;;;;;;;32.45;26.77;100929.38;5125652;28;20051;-72
2022/07/08 08:51:41;;;;;;;0.10;0.10;;;;;;;32.28;27.73;100927.31;5125536;28;20026;-74
2022/07/08 08:54:06;;;;;;;0.52;0.52;;;;;;;32.15;27.07;100924.91;5125368;28;20020;-73
2022/07/08 08:56:32;;;;;;;0.10;0.10;;;;;;;32.15;26.76;100919.53;5106895;28;20026;-72
2022/07/08 08:58:58;;;;;;;0.57;0.57;;;;;;;32.12;27.40;100922.50;5124958;28;20050;-71
2022/07/08 09:01:24;;;;;;;0.10;0.10;;;;;;;32.10;27.67;100916.44;5125209;28;20027;-72
2022/07/08 09:03:49;;;;;;;0.10;0.10;;;;;;;32.09;26.35;100933.53;5124806;28;20016;-72
2022/07/08 09:06:15;;;;;;;0.10;0.10;;;;;;;31.78;26.58;100925.56;5106640;28;20019;-71
2022/07/08 09:08:40;;;;;;;0.17;0.17;;;;;;;31.76;27.32;100932.91;5105179;28;20514;-72
2022/07/08 09:11:06;;;;;;;0.10;0.10;;;;;;;31.77;27.57;100930.13;5124507;28;20538;-72
2022/07/08 09:13:32;;;;;;;0.10;0.10;;;;;;;32.16;28.35;100931.09;5124630;28;20024;-71
2022/07/08 09:15:58;;;;;;;0.47;0.47;;;;;;;32.40;27.24;100919.06;5124889;28;20019;-71
2022/07/08 09:18:28;;;;;;;0.05;0.05;;;;;;;32.47;27.39;100922.00;5124874;28;20068;-72
2022/07/08 09:20:55;;;;;;;0.10;0.10;;;;;;;32.59;27.42;100915.50;5124392;28;20026;-71
2022/07/08 09:23:28;;;;;;;0.10;0.10;;;;;;;32.64;27.79;100923.13;5124820;28;20567;-73
2022/07/08 09:25:56;;;;;;;0.10;0.10;;;;;;;32.95;27.19;100930.94;5124179;28;20047;-73
2022/07/08 09:28:27;;;;;;;0.10;0.10;;;;;;;32.76;26.63;100931.88;5125076;28;20053;-73
2022/07/08 09:30:57;;;;;;;0.10;0.10;;;;;;;33.08;26.61;100919.03;5124411;28;20079;-73
2022/07/08 09:33:26;;;;;;;0.10;0.10;;;;;;;32.96;26.03;100927.25;5125060;28;20019;-73
2022/07/08 09:35:53;;;;;;;0.10;0.10;;;;;;;33.08;25.94;100925.28;5124685;28;20043;-75
2022/07/08 09:38:19;;;;;;;0.40;0.40;;;;;;;33.02;26.05;100936.59;5124809;28;20027;-73
2022/07/08 09:40:55;;;;;;;0.10;0.10;;;;;;;32.85;25.49;100928.28;5124612;28;20062;-71
2022/07/08 09:43:24;;;;;;;0.10;0.10;;;;;;;33.07;26.43;100928.09;5124800;28;20024;-72
2022/07/08 09:45:49;;;;;;;0.10;0.10;;;;;;;33.23;25.73;100930.16;5124835;28;20057;-72
2022/07/08 09:48:15;;;;;;;0.10;0.10;;;;;;;33.20;25.38;100928.59;5124630;28;20019;-71
2022/07/08 09:50:48;;;;;;;0.10;0.10;;;;;;;33.14;24.67;100927.34;5124087;28;20028;-70
2022/07/08 09:53:24;;;;;;;0.10;0.10;;;;;;;33.16;25.10;100921.81;5124172;28;20024;-71
2022/07/08 09:55:55;;;;;;;0.10;0.10;;;;;;;33.00;23.69;100938.56;5105651;28;20023;-70
2022/07/08 09:58:26;;;;;;;0.30;0.30;;;;;;;33.01;25.24;100921.44;5124338;28;20083;-72
2022/07/08 10:00:54;;;;;;;0.10;0.10;;;;;;;33.08;25.48;100922.56;5124382;28;20035;-70
2022/07/08 10:03:20;;;;;;;0.10;0.10;;;;;;;33.20;25.68;100916.97;5105718;28;20078;-71
2022/07/08 10:05:46;;;;;;;0.10;0.10;;;;;;;33.12;25.16;100918.59;5105706;28;20486;-71
2022/07/08 10:08:13;;;;;;;0.10;0.10;;;;;;;33.04;25.31;100913.06;5124105;28;20136;-70
2022/07/08 10:10:40;;;;;;;0.10;0.10;;;;;;;33.07;25.56;100923.56;5123793;28;20030;-69
2022/07/08 10:13:06;;;;;;;0.30;0.30;;;;;;;32.85;25.08;100914.84;5123962;28;20016;-70
2022/07/08 10:15:33;;;;;;;0.47;0.47;;;;;;;32.35;25.22;100927.56;5123680;28;20022;-69
2022/07/08 10:18:22;;;;;;;0.68;0.68;;;;;;;32.09;25.68;100930.00;5123931;28;20530;-70
2022/07/08 10:20:55;;;;;;;0.10;0.10;;;;;;;32.36;26.12;100925.72;5123266;28;20032;-70
2022/07/08 10:23:48;;;;;;;0.10;0.10;;;;;;;32.27;24.69;100928.28;5123795;28;20066;-70
2022/07/08 10:26:18;;;;;;;0.05;0.05;;;;;;;31.91;25.19;100934.22;5123537;28;20039;-70
2022/07/08 10:28:43;;;;;;;0.00;0.00;;;;;;;32.03;25.81;100936.78;5123213;28;20019;-70
2022/07/08 10:31:20;;;;;;;0.10;0.10;;;;;;;32.01;25.53;100936.06;5123501;28;20091;-69
2022/07/08 10:33:46;;;;;;;0.10;0.10;;;;;;;32.10;25.43;100937.91;5123913;28;20023;-72
2022/07/08 10:36:11;;;;;;;0.10;0.10;;;;;;;32.01;24.28;100938.75;5123747;28;20475;-72
2022/07/08 10:38:39;;;;;;;0.10;0.10;;;;;;;31.38;24.36;100944.31;5128041;28;20045;-72
2022/07/08 10:41:09;;;;;;;0.10;0.10;;;;;;;31.00;25.07;100949.38;5127456;28;20087;-71
2022/07/08 10:43:36;;;;;;;0.10;0.10;;;;;;;31.09;24.99;100950.38;5127450;28;20032;-72
2022/07/08 10:46:14;;;;;;;0.10;0.10;;;;;;;30.56;25.12;100960.25;5127668;28;20024;-72
2022/07/08 10:48:40;;;;;;;0.10;0.10;;;;;;;29.83;26.24;100952.84;5127746;28;20057;-72
2022/07/08 10:51:06;;;;;;;0.10;0.10;;;;;;;29.25;26.53;100955.59;5127510;28;20058;-72
2022/07/08 10:53:47;;;;;;;0.10;0.10;;;;;;;29.08;27.26;100954.28;5127755;28;20248;-72
2022/07/08 10:56:33;;;;;;;;;;;;;;;29.09;27.33;100961.31;5128174;28;20267;-72
2022/07/08 10:59:21;;;;;;;0.10;0.10;;;;;;;28.76;27.11;100960.28;5127202;28;19908;-71
2022/07/08 11:02:14;;;;;;;0.10;0.10;;;;;;;28.40;27.87;100960.34;5127462;28;20020;-71
2022/07/08 11:04:40;;;;;;;0.10;0.10;;;;;;;27.95;29.16;100956.47;5119003;28;20039;-71
2022/07/08 11:07:22;;;;;;;0.10;0.10;;;;;;;27.56;29.33;100962.78;5127100;28;20034;-72
2022/07/08 11:10:08;;;;;;;0.10;0.10;;;;;;;26.50;29.99;100955.84;5127307;28;20537;-73
2022/07/08 11:12:36;;;;;;;0.10;0.10;;;;;;;26.06;31.04;100966.66;5127286;28;20027;-71
2022/07/08 11:15:11;;;;;;;0.10;0.10;;;;;;;25.56;31.12;100965.34;5127250;28;20053;-71
2022/07/08 11:17:38;;;;;;;0.10;0.10;;;;;;;25.14;31.92;100967.94;5127111;28;20099;-74
2022/07/08 11:20:24;;;;;;;0.10;0.10;;;;;;;24.93;32.59;100973.63;5127216;28;20019;-72
2022/07/08 11:22:50;;;;;;;0.10;0.10;;;;;;;24.41;33.34;100973.06;5126396;28;20039;-71
2022/07/08 11:25:16;;;;;;;0.10;0.10;;;;;;;24.21;34.81;100983.03;5126849;28;20019;-71